createdAt,value
2022-10-09T00:00:34.194Z,4.05
2022-10-09T00:03:01.515Z,3.95
2022-10-09T00:05:29.260Z,4.15
2022-10-09T00:07:56.608Z,3.58
2022-10-09T00:10:23.994Z,4.05
2022-10-09T00:12:51.738Z,3.88
2022-10-09T00:15:19.628Z,4.00
2022-10-09T00:17:46.943Z,3.58
2022-10-09T00:20:15.639Z,4.05
2022-10-09T00:22:46.026Z,3.42
2022-10-09T00:25:13.688Z,3.65
2022-10-09T00:27:41.353Z,4.35
2022-10-09T00:30:09.155Z,3.38
2022-10-09T00:32:36.843Z,3.78
2022-10-09T00:35:04.504Z,4.05
2022-10-09T00:37:31.824Z,3.50
2022-10-09T00:39:59.449Z,3.67
2022-10-09T00:42:27.748Z,3.30
2022-10-09T00:45:00.415Z,3.40
2022-10-09T00:47:27.863Z,3.72
2022-10-09T00:49:57.748Z,3.40
2022-10-09T00:52:27.228Z,3.10
2022-10-09T00:54:55.205Z,3.90
2022-10-09T00:57:23.044Z,3.75
2022-10-09T00:59:50.560Z,3.92
2022-10-09T01:02:18.627Z,3.67
2022-10-09T01:04:45.960Z,3.42
2022-10-09T01:07:22.333Z,3.72
2022-10-09T01:09:58.122Z,3.30
2022-10-09T01:12:25.575Z,3.25
2022-10-09T01:15:00.151Z,3.10
2022-10-09T01:17:39.383Z,3.33
2022-10-09T01:20:23.369Z,2.70
2022-10-09T01:22:51.092Z,2.63
2022-10-09T01:25:32.794Z,3.15
2022-10-09T01:28:01.562Z,3.72
2022-10-09T01:30:29.920Z,3.53
2022-10-09T01:32:57.996Z,3.10
2022-10-09T01:35:26.021Z,3.03
2022-10-09T01:37:54.433Z,3.10
2022-10-09T01:40:22.881Z,3.28
2022-10-09T01:42:50.711Z,3.15
2022-10-09T01:45:18.477Z,2.92
2022-10-09T01:47:49.315Z,3.10
2022-10-09T01:50:19.221Z,3.15
2022-10-09T01:52:55.015Z,2.78
2022-10-09T01:55:34.609Z,3.45
2022-10-09T01:58:08.966Z,3.45
2022-10-09T02:00:44.326Z,2.92
2022-10-09T02:03:14.382Z,3.75
2022-10-09T02:05:43.448Z,3.65
2022-10-09T02:08:13.532Z,3.75
2022-10-09T02:10:41.910Z,3.33
2022-10-09T02:13:09.527Z,3.70
2022-10-09T02:15:40.356Z,3.40
2022-10-09T02:18:10.811Z,2.95
2022-10-09T02:20:40.497Z,3.00
2022-10-09T02:23:08.678Z,2.90
2022-10-09T02:25:36.359Z,3.30
2022-10-09T02:28:04.295Z,3.20
2022-10-09T02:30:37.289Z,3.30
2022-10-09T02:33:05.865Z,3.15
2022-10-09T02:35:34.854Z,2.97
2022-10-09T02:38:02.282Z,3.70
2022-10-09T02:40:29.727Z,3.03
2022-10-09T02:42:57.520Z,2.72
2022-10-09T02:45:25.202Z,3.00
2022-10-09T02:47:52.904Z,3.03
2022-10-09T02:50:20.361Z,3.30
2022-10-09T02:52:48.422Z,3.20
2022-10-09T02:55:15.961Z,3.10
2022-10-09T02:57:43.597Z,3.83
2022-10-09T03:00:11.593Z,3.40
2022-10-09T03:02:39.123Z,3.72
2022-10-09T03:05:06.796Z,3.35
2022-10-09T03:07:34.244Z,3.33
2022-10-09T03:10:01.870Z,3.15
2022-10-09T03:12:29.367Z,3.08
2022-10-09T03:14:57.025Z,3.00
2022-10-09T03:17:24.484Z,3.20
2022-10-09T03:19:51.948Z,2.90
2022-10-09T03:22:19.501Z,2.78
2022-10-09T03:24:46.848Z,2.67
2022-10-09T03:27:14.523Z,2.92
2022-10-09T03:29:42.074Z,2.30
2022-10-09T03:32:09.691Z,2.90
2022-10-09T03:34:37.044Z,2.70
2022-10-09T03:37:04.642Z,2.80
2022-10-09T03:39:32.417Z,2.53
2022-10-09T03:41:59.892Z,2.47
2022-10-09T03:44:27.618Z,2.85
2022-10-09T03:46:55.335Z,2.75
2022-10-09T03:49:23.306Z,2.50
2022-10-09T03:51:51.038Z,2.80
2022-10-09T03:54:18.483Z,2.92
2022-10-09T03:56:45.950Z,2.75
2022-10-09T03:59:14.033Z,2.90
2022-10-09T04:01:41.472Z,2.55
2022-10-09T04:04:08.916Z,2.40
2022-10-09T04:06:36.612Z,3.28
2022-10-09T04:09:03.967Z,2.95
2022-10-09T04:11:31.272Z,2.90
2022-10-09T04:13:58.615Z,3.00
2022-10-09T04:16:26.106Z,3.15
2022-10-09T04:18:53.855Z,3.22
2022-10-09T04:21:21.430Z,3.47
2022-10-09T04:23:48.871Z,2.83
2022-10-09T04:26:16.366Z,3.03
2022-10-09T04:28:43.820Z,2.70
2022-10-09T04:31:11.271Z,3.00
2022-10-09T04:33:38.705Z,3.00
2022-10-09T04:36:06.460Z,3.47
2022-10-09T04:38:33.813Z,2.92
2022-10-09T04:41:05.989Z,3.15
2022-10-09T04:43:34.153Z,2.85
2022-10-09T04:46:05.522Z,3.25
2022-10-09T04:48:33.317Z,3.13
2022-10-09T04:51:01.003Z,3.08
2022-10-09T04:53:28.439Z,3.35
2022-10-09T04:55:56.165Z,2.83
2022-10-09T04:58:23.522Z,3.63
2022-10-09T05:00:51.030Z,2.72
2022-10-09T05:03:19.756Z,2.90
2022-10-09T05:05:47.862Z,2.78
2022-10-09T05:08:15.154Z,3.00
2022-10-09T05:10:42.639Z,3.20
2022-10-09T05:13:10.071Z,2.75
2022-10-09T05:15:38.252Z,2.65
2022-10-09T05:18:06.152Z,3.00
2022-10-09T05:20:35.668Z,3.10
2022-10-09T05:23:03.343Z,4.32
2022-10-09T05:25:31.016Z,3.75
2022-10-09T05:27:58.802Z,3.70
2022-10-09T05:30:26.348Z,3.58
2022-10-09T05:32:53.696Z,2.92
2022-10-09T05:35:21.349Z,3.78
2022-10-09T05:37:48.837Z,3.30
2022-10-09T05:40:16.379Z,3.25
2022-10-09T05:42:43.713Z,3.20
2022-10-09T05:45:12.322Z,3.10
2022-10-09T05:47:39.625Z,3.83
2022-10-09T05:50:07.172Z,10.32
2022-10-09T05:52:36.428Z,8.07
2022-10-09T05:55:04.105Z,10.00
2022-10-09T05:57:31.444Z,4.90
2022-10-09T05:59:58.760Z,6.60
2022-10-09T06:02:26.206Z,6.60
2022-10-09T06:04:53.479Z,7.15
2022-10-09T06:07:21.063Z,7.28
2022-10-09T06:09:48.370Z,10.13
2022-10-09T06:12:15.733Z,9.85
2022-10-09T06:14:43.428Z,8.68
2022-10-09T06:17:11.063Z,8.02
2022-10-09T06:19:38.621Z,7.20
2022-10-09T06:22:06.161Z,6.50
2022-10-09T06:24:33.498Z,5.65
2022-10-09T06:27:01.093Z,5.45
2022-10-09T06:29:30.362Z,4.82
2022-10-09T06:31:57.778Z,5.68
2022-10-09T06:34:25.285Z,5.75
2022-10-09T06:36:52.745Z,5.47
2022-10-09T06:39:20.225Z,5.55
2022-10-09T06:41:47.676Z,6.00
2022-10-09T06:44:17.301Z,5.85
2022-10-09T06:46:45.872Z,6.32
2022-10-09T06:49:13.239Z,5.70
2022-10-09T06:51:41.617Z,5.15
2022-10-09T06:54:14.363Z,4.97
2022-10-09T06:56:42.299Z,5.00
2022-10-09T06:59:09.990Z,5.13
2022-10-09T07:01:38.063Z,4.90
2022-10-09T07:04:07.843Z,4.55
2022-10-09T07:06:37.957Z,4.88
2022-10-09T07:09:07.200Z,4.57
2022-10-09T07:11:39.186Z,4.97
2022-10-09T07:14:07.411Z,4.70
2022-10-09T07:16:36.617Z,4.28
2022-10-09T07:19:07.764Z,3.55
2022-10-09T07:21:38.947Z,3.35
2022-10-09T07:24:06.418Z,3.75
2022-10-09T07:26:34.967Z,2.90
2022-10-09T07:29:02.432Z,3.30
2022-10-09T07:31:30.112Z,3.00
2022-10-09T07:33:58.074Z,3.30
2022-10-09T07:36:25.794Z,3.20
2022-10-09T07:38:54.551Z,3.90
2022-10-09T07:41:22.924Z,3.50
2022-10-09T07:43:50.984Z,3.13
2022-10-09T07:46:20.177Z,3.33
2022-10-09T07:48:49.636Z,3.63
2022-10-09T07:51:18.235Z,3.33
2022-10-09T07:53:45.718Z,3.72
2022-10-09T07:56:16.970Z,4.10
2022-10-09T07:58:45.323Z,3.10
2022-10-09T08:01:17.440Z,3.72
2022-10-09T08:03:47.451Z,3.60
2022-10-09T08:06:15.145Z,3.55
2022-10-09T08:11:25.510Z,3.42
2022-10-09T08:13:53.853Z,3.22
2022-10-09T08:16:22.453Z,3.53
2022-10-09T08:18:49.944Z,3.15
2022-10-09T08:21:18.745Z,4.20
2022-10-09T08:23:46.241Z,3.70
2022-10-09T08:26:19.938Z,3.65
2022-10-09T08:28:52.158Z,3.83
2022-10-09T08:31:20.265Z,4.88
2022-10-09T08:33:48.007Z,3.90
2022-10-09T08:36:16.352Z,4.82
2022-10-09T08:38:47.657Z,4.60
2022-10-09T08:41:24.502Z,5.00
2022-10-09T08:43:55.438Z,4.30
2022-10-09T08:46:29.516Z,4.07
2022-10-09T08:48:57.367Z,3.55
2022-10-09T08:51:29.183Z,4.15
2022-10-09T08:54:02.614Z,4.00
2022-10-09T08:56:30.460Z,3.90
2022-10-09T08:58:57.967Z,4.07
2022-10-09T09:01:28.499Z,3.85
2022-10-09T09:04:08.135Z,4.43
2022-10-09T09:06:48.928Z,4.45
2022-10-09T09:09:22.341Z,4.20
2022-10-09T09:11:55.430Z,4.17
2022-10-09T09:14:23.118Z,4.65
2022-10-09T09:16:53.316Z,5.28
2022-10-09T09:19:21.919Z,4.57
2022-10-09T09:21:51.352Z,5.05
2022-10-09T09:24:45.352Z,4.10
2022-10-09T09:27:22.916Z,4.68
2022-10-09T09:29:56.645Z,4.60
2022-10-09T09:32:25.302Z,4.53
2022-10-09T09:34:53.739Z,4.38
2022-10-09T09:37:21.226Z,3.85
2022-10-09T09:42:36.240Z,4.22
2022-10-09T09:45:05.217Z,4.00
2022-10-09T09:47:37.406Z,3.30
2022-10-09T09:50:05.666Z,3.83
2022-10-09T09:52:36.150Z,3.67
2022-10-09T09:55:03.872Z,3.70
2022-10-09T09:57:43.372Z,3.50
2022-10-09T10:00:10.836Z,3.63
2022-10-09T10:02:38.978Z,3.78
2022-10-09T10:05:27.492Z,4.43
2022-10-09T10:07:57.937Z,3.45
2022-10-09T10:10:26.998Z,3.45
2022-10-09T10:12:54.586Z,3.72
2022-10-09T10:15:24.378Z,3.33
2022-10-09T10:17:56.766Z,3.13
2022-10-09T10:20:24.905Z,3.33
2022-10-09T10:22:53.402Z,3.83
2022-10-09T10:25:22.487Z,3.28
2022-10-09T10:27:52.021Z,3.50
2022-10-09T10:30:20.372Z,3.45
2022-10-09T10:33:03.367Z,3.40
2022-10-09T10:35:33.075Z,3.20
2022-10-09T10:38:19.071Z,2.95
2022-10-09T10:40:46.375Z,2.92
2022-10-09T10:43:37.062Z,3.40
2022-10-09T10:46:07.434Z,2.92
2022-10-09T10:48:38.243Z,3.20
2022-10-09T10:51:19.919Z,2.95
2022-10-09T10:53:50.563Z,3.22
2022-10-09T10:56:24.909Z,3.20
2022-10-09T11:01:29.862Z,3.28
2022-10-09T11:04:03.634Z,2.70
2022-10-09T11:06:44.894Z,2.90
2022-10-09T11:09:24.484Z,2.92
2022-10-09T11:12:08.255Z,3.35
2022-10-09T11:15:10.345Z,2.90
2022-10-09T11:17:38.323Z,3.22
2022-10-09T11:20:18.737Z,2.83
2022-10-09T11:22:46.595Z,3.20
2022-10-09T11:25:17.229Z,2.75
2022-10-09T11:27:54.090Z,2.88
2022-10-09T11:30:22.310Z,2.83
2022-10-09T11:32:55.690Z,2.40
2022-10-09T11:35:24.235Z,2.60
2022-10-09T11:37:58.588Z,2.80
2022-10-09T11:40:34.596Z,2.78
2022-10-09T11:43:05.541Z,2.90
2022-10-09T11:45:42.857Z,2.40
2022-10-09T11:48:16.429Z,2.00
2022-10-09T11:50:49.719Z,2.80
2022-10-09T11:53:19.547Z,2.72
2022-10-09T11:55:48.693Z,2.28
2022-10-09T11:58:22.200Z,2.60
2022-10-09T12:00:51.298Z,2.40
2022-10-09T12:03:36.092Z,2.50
2022-10-09T12:06:14.427Z,2.40
2022-10-09T12:08:55.062Z,2.35
2022-10-09T12:11:23.031Z,2.40
2022-10-09T12:14:01.171Z,2.47
2022-10-09T12:16:42.732Z,3.38
2022-10-09T12:19:13.234Z,3.22
2022-10-09T12:21:56.376Z,2.60
2022-10-09T12:24:25.036Z,2.65
2022-10-09T12:26:54.639Z,2.85
2022-10-09T12:29:34.541Z,2.90
2022-10-09T12:32:05.078Z,2.75
2022-10-09T12:34:35.150Z,2.38
2022-10-09T12:37:22.153Z,3.10
2022-10-09T12:39:50.452Z,3.20
2022-10-09T12:42:20.208Z,2.53
2022-10-09T12:44:48.581Z,2.72
2022-10-09T12:47:29.438Z,2.45
2022-10-09T12:49:57.911Z,2.88
2022-10-09T12:52:25.260Z,2.90
2022-10-09T12:54:52.954Z,3.05
2022-10-09T12:57:24.105Z,2.53
2022-10-09T12:59:54.988Z,2.75
2022-10-09T13:02:22.824Z,2.53
2022-10-09T13:04:58.239Z,2.65
2022-10-09T13:07:26.775Z,2.85
2022-10-09T13:09:59.588Z,2.95
2022-10-09T13:12:28.178Z,2.65
2022-10-09T13:14:57.424Z,2.90
2022-10-09T13:22:29.993Z,2.28
2022-10-09T13:25:00.249Z,2.65
2022-10-09T13:27:30.227Z,2.30
2022-10-09T13:29:58.058Z,2.20
2022-10-09T13:32:26.094Z,2.40
2022-10-09T13:34:55.656Z,2.50
2022-10-09T13:37:24.359Z,2.55
2022-10-09T13:39:55.371Z,2.70
2022-10-09T13:42:25.299Z,2.75
2022-10-09T13:44:53.163Z,2.88
2022-10-09T13:47:24.281Z,2.78
2022-10-09T13:49:52.052Z,2.55
2022-10-09T13:52:19.785Z,2.45
2022-10-09T13:54:47.524Z,2.95
2022-10-09T13:57:14.961Z,2.47
2022-10-09T13:59:42.464Z,2.47
2022-10-09T14:02:10.989Z,2.63
2022-10-09T14:04:38.496Z,2.33
2022-10-09T14:07:05.956Z,2.40
2022-10-09T14:09:33.500Z,2.33
2022-10-09T14:12:00.837Z,2.75
2022-10-09T14:14:28.184Z,2.38
2022-10-09T14:16:55.627Z,2.72
2022-10-09T14:19:27.539Z,2.92
2022-10-09T14:21:55.583Z,3.30
2022-10-09T14:24:22.956Z,2.50
2022-10-09T14:26:51.817Z,2.75
2022-10-09T14:29:19.322Z,2.90
2022-10-09T14:31:47.167Z,2.75
2022-10-09T14:34:14.979Z,2.25
2022-10-09T14:36:42.702Z,2.13
2022-10-09T14:39:10.267Z,2.10
2022-10-09T14:41:38.149Z,2.30
2022-10-09T14:44:06.637Z,1.92
2022-10-09T14:46:35.081Z,2.70
2022-10-09T14:49:07.539Z,2.95
2022-10-09T14:51:37.061Z,2.78
2022-10-09T14:54:04.988Z,2.47
2022-10-09T14:56:32.453Z,2.00
2022-10-09T14:59:03.234Z,1.80
2022-10-09T15:01:30.665Z,1.95
2022-10-09T15:03:58.449Z,2.38
2022-10-09T15:06:27.791Z,2.38
2022-10-09T15:08:59.230Z,2.50
2022-10-09T15:11:29.834Z,2.20
2022-10-09T15:13:57.613Z,3.08
2022-10-09T15:16:25.465Z,2.55
2022-10-09T15:18:53.826Z,2.25
2022-10-09T15:21:22.554Z,2.60
2022-10-09T15:23:50.700Z,2.47
2022-10-09T15:26:19.135Z,4.10
2022-10-09T15:28:46.575Z,2.70
2022-10-09T15:31:20.469Z,2.40
2022-10-09T15:33:48.217Z,2.60
2022-10-09T15:36:15.643Z,1.90
2022-10-09T15:38:43.366Z,2.17
2022-10-09T15:41:19.926Z,3.72
2022-10-09T15:43:47.378Z,2.72
2022-10-09T15:46:15.043Z,5.07
2022-10-09T15:48:42.448Z,4.70
2022-10-09T15:51:13.766Z,2.55
2022-10-09T15:53:44.972Z,3.05
2022-10-09T15:56:20.079Z,2.80
2022-10-09T15:58:47.437Z,2.75
2022-10-09T16:01:15.653Z,2.55
2022-10-09T16:03:43.379Z,3.60
2022-10-09T16:06:12.656Z,2.60
2022-10-09T16:08:40.840Z,3.92
2022-10-09T16:13:43.127Z,5.25
2022-10-09T16:16:12.587Z,3.20
2022-10-09T16:18:39.945Z,3.05
2022-10-09T16:21:14.905Z,3.90
2022-10-09T16:23:43.090Z,2.80
2022-10-09T16:26:11.636Z,4.05
2022-10-09T16:28:39.384Z,3.78
2022-10-09T16:31:06.894Z,4.20
2022-10-09T16:33:34.183Z,3.78
2022-10-09T16:36:12.043Z,4.55
2022-10-09T16:38:39.990Z,5.38
2022-10-09T16:41:12.155Z,4.93
2022-10-09T16:43:40.193Z,3.97
2022-10-09T16:46:11.837Z,4.30
2022-10-09T16:48:39.316Z,3.22
2022-10-09T16:51:11.374Z,3.38
2022-10-09T16:53:38.879Z,3.65
2022-10-09T16:56:09.156Z,3.42
2022-10-09T16:58:36.609Z,2.53
2022-10-09T17:01:09.467Z,2.72
2022-10-09T17:03:40.873Z,2.55
2022-10-09T17:06:12.014Z,3.25
2022-10-09T17:08:39.770Z,3.08
2022-10-09T17:11:08.497Z,2.50
2022-10-09T17:13:36.519Z,2.50
2022-10-09T17:16:17.136Z,3.50
2022-10-09T17:18:46.056Z,3.90
2022-10-09T17:21:14.506Z,2.75
2022-10-09T17:23:41.908Z,2.70
2022-10-09T17:26:20.409Z,2.35
2022-10-09T17:28:48.816Z,2.08
2022-10-09T17:31:18.395Z,2.55
2022-10-09T17:33:48.346Z,2.05
2022-10-09T17:36:21.233Z,2.53
2022-10-09T17:38:49.091Z,3.20
2022-10-09T17:41:18.260Z,2.85
2022-10-09T17:43:45.670Z,2.42
2022-10-09T17:46:14.396Z,3.40
2022-10-09T17:48:48.744Z,3.63
2022-10-09T17:53:44.101Z,3.08
2022-10-09T17:56:11.718Z,2.97
2022-10-09T17:58:39.238Z,4.18
2022-10-09T18:01:07.655Z,2.72
2022-10-09T18:03:35.257Z,3.08
2022-10-09T18:06:05.739Z,3.00
2022-10-09T18:08:33.108Z,3.03
2022-10-09T18:11:11.569Z,2.47
2022-10-09T18:13:40.774Z,3.38
2022-10-09T18:16:12.818Z,2.78
2022-10-09T18:18:40.415Z,3.38
2022-10-09T18:21:12.093Z,3.60
2022-10-09T18:23:39.807Z,3.72
2022-10-09T18:26:08.553Z,3.08
2022-10-09T18:28:36.369Z,3.22
2022-10-09T18:31:11.465Z,4.07
2022-10-09T18:33:39.508Z,4.88
2022-10-09T18:36:08.877Z,5.78
2022-10-09T18:38:36.936Z,6.70
2022-10-09T18:41:04.882Z,4.32
2022-10-09T18:43:33.425Z,6.35
2022-10-09T18:46:01.160Z,2.85
2022-10-09T18:48:30.680Z,4.28
2022-10-09T18:50:58.277Z,3.22
2022-10-09T18:53:25.984Z,3.30
2022-10-09T18:55:53.737Z,3.17
2022-10-09T18:58:22.335Z,4.43
2022-10-09T19:00:49.868Z,11.80
2022-10-09T19:03:17.459Z,7.32
2022-10-09T19:05:45.456Z,6.93
2022-10-09T19:08:12.806Z,6.38
2022-10-09T19:10:40.167Z,4.30
2022-10-09T19:13:07.475Z,4.60
2022-10-09T19:15:35.380Z,3.30
2022-10-09T19:18:02.864Z,4.03
2022-10-09T19:20:31.806Z,3.75
2022-10-09T19:22:59.335Z,3.80
2022-10-09T19:25:27.278Z,3.83
2022-10-09T19:27:54.587Z,3.78
2022-10-09T19:30:22.141Z,3.78
2022-10-09T19:32:50.049Z,3.60
2022-10-09T19:35:17.639Z,3.33
2022-10-09T19:37:45.142Z,2.65
2022-10-09T19:40:12.587Z,2.90
2022-10-09T19:42:40.018Z,3.13
2022-10-09T19:45:07.618Z,3.53
2022-10-09T19:47:35.086Z,3.83
2022-10-09T19:50:02.518Z,3.47
2022-10-09T19:52:29.899Z,3.90
2022-10-09T19:54:57.213Z,3.80
2022-10-09T19:57:24.657Z,3.00
2022-10-09T19:59:52.108Z,3.05
2022-10-09T20:02:19.444Z,2.67
2022-10-09T20:04:51.342Z,2.72
2022-10-09T20:07:18.913Z,2.55
2022-10-09T20:09:46.600Z,2.75
2022-10-09T20:12:14.188Z,2.20
2022-10-09T20:14:41.853Z,2.85
2022-10-09T20:17:09.525Z,3.38
2022-10-09T20:19:36.837Z,3.28
2022-10-09T20:22:04.162Z,4.07
2022-10-09T20:24:32.877Z,6.45
2022-10-09T20:27:00.406Z,12.18
2022-10-09T20:29:28.433Z,14.18
2022-10-09T20:31:56.280Z,21.85
2022-10-09T20:34:27.028Z,19.95
2022-10-09T20:36:54.768Z,27.08
2022-10-09T20:39:22.205Z,20.60
2022-10-09T20:41:49.797Z,17.20
2022-10-09T20:44:17.508Z,10.73
2022-10-09T20:46:45.187Z,9.13
2022-10-09T20:49:13.425Z,9.18
2022-10-09T20:51:41.118Z,6.50
2022-10-09T20:54:09.518Z,6.03
2022-10-09T20:56:37.044Z,4.80
2022-10-09T20:59:04.961Z,4.50
2022-10-09T21:01:32.475Z,4.05
2022-10-09T21:04:00.040Z,6.47
2022-10-09T21:06:27.676Z,6.18
2022-10-09T21:08:55.462Z,4.85
2022-10-09T21:11:23.467Z,4.25
2022-10-09T21:13:51.469Z,6.03
2022-10-09T21:16:23.028Z,3.95
2022-10-09T21:18:54.992Z,4.47
2022-10-09T21:21:22.820Z,5.68
2022-10-09T21:23:53.961Z,4.72
2022-10-09T21:26:22.091Z,4.43
2022-10-09T21:28:49.765Z,4.68
2022-10-09T21:31:19.423Z,4.38
2022-10-09T21:33:47.256Z,5.28
2022-10-09T21:36:33.631Z,2.95
2022-10-09T21:39:01.226Z,3.50
2022-10-09T21:41:28.993Z,3.05
2022-10-09T21:43:56.556Z,2.58
2022-10-09T21:46:24.041Z,3.13
2022-10-09T21:48:51.505Z,3.25
2022-10-09T21:51:18.939Z,2.92
2022-10-09T21:53:46.507Z,5.07
2022-10-09T21:56:14.172Z,4.60
2022-10-09T21:58:45.433Z,4.80
2022-10-09T22:01:15.703Z,3.88
2022-10-09T22:03:43.104Z,3.28
2022-10-09T22:06:17.796Z,3.38
2022-10-09T22:08:46.267Z,2.90
2022-10-09T22:11:13.777Z,2.72
2022-10-09T22:13:41.467Z,2.40
2022-10-09T22:16:09.776Z,2.95
2022-10-09T22:18:39.373Z,2.20
2022-10-09T22:21:08.298Z,2.55
2022-10-09T22:23:36.152Z,2.38
2022-10-09T22:26:05.355Z,2.55
2022-10-09T22:28:33.151Z,2.53
2022-10-09T22:31:03.783Z,3.20
2022-10-09T22:33:31.636Z,2.80
2022-10-09T22:36:10.489Z,2.78
2022-10-09T22:38:38.097Z,4.43
2022-10-09T22:41:05.583Z,2.35
2022-10-09T22:43:32.925Z,2.33
2022-10-09T22:46:00.287Z,2.72
2022-10-09T22:48:27.879Z,2.45
2022-10-09T22:50:55.563Z,2.50
2022-10-09T22:53:23.107Z,2.70
2022-10-09T22:55:50.402Z,2.38
2022-10-09T22:58:18.051Z,2.63
2022-10-09T23:00:45.662Z,2.70
2022-10-09T23:03:13.026Z,2.85
2022-10-09T23:05:40.361Z,2.88
2022-10-09T23:08:07.826Z,2.42
2022-10-09T23:10:39.038Z,2.50
2022-10-09T23:13:07.257Z,2.38
2022-10-09T23:15:37.925Z,2.58
2022-10-09T23:18:05.576Z,2.17
2022-10-09T23:20:36.197Z,2.78
2022-10-09T23:23:03.674Z,2.72
2022-10-09T23:25:31.221Z,3.08
2022-10-09T23:27:58.754Z,3.25
2022-10-09T23:30:26.203Z,3.60
2022-10-09T23:32:53.946Z,3.15
2022-10-09T23:35:21.442Z,3.40
2022-10-09T23:37:48.758Z,3.15
2022-10-09T23:40:16.092Z,2.97
2022-10-09T23:42:43.595Z,3.20
2022-10-09T23:45:11.590Z,3.00
2022-10-09T23:47:39.557Z,2.92
2022-10-09T23:50:07.308Z,3.03
2022-10-09T23:52:35.559Z,2.85
2022-10-09T23:55:02.831Z,2.60
2022-10-09T23:57:30.424Z,2.40
2022-10-09T23:59:57.890Z,2.63
